DGW Airport (Converse County) Information

FAA: DGW - ICAO: KDGW

DGW Airport Location

State Wyoming
County Converse
City Douglas
DGW Airport is 3 miles north of Douglas, WY.
Latitude 42-47-49.9000N
Longitude 105-23-09.0000W
Elevation 4,932ft

KDGW Airport METARs

METAR KDGW 281353Z AUTO 31010KT 10SM CLR M01/M07 A3026 RMK AO2 SLP258 T10061067
Altimeter 30.26"
Temperature -0.6°C (30.9°F)
Wind 310° at 10KT
Clouds Skies are clear.
Visibility 10.0mi
Time observed: 2021-10-28T13:53:00Z

DGW Airport Details

Status Operational
Activation September 1984
Ownership Public
Usage Public
Chart CHEYENNE
ATC on-site No
Beacon schedule sunset-sunrise
Beacon color clear green

DGW Airport Contacts

Owner CONVERSE COUNTY
Owner address PO BOX 774, DOUGLAS, WY 82633
Owner phone 307-358-4924
Manager DON MCNIVEN
Manager address P.O. BOX 64, BURLINGTON, WY 82411
Manager phone (307) 899-0385

DGW Airport (Converse County) Radio Frequencies

DGW (Airport) Radio Frequencies

UNICOM 122.8
Common traffic advisory frequency (CTAF) 122.8